createdAt,value
2019-02-20T00:02:15.392Z,101577.70
2019-02-20T00:04:47.557Z,101532.40
2019-02-20T00:07:17.983Z,101572.59
2019-02-20T00:09:49.131Z,101566.88
2019-02-20T00:12:20.069Z,101564.95
2019-02-20T00:14:52.637Z,101564.73
2019-02-20T00:17:24.488Z,101555.59
2019-02-20T00:19:58.973Z,101556.58
2019-02-20T00:22:39.798Z,101552.69
2019-02-20T00:25:06.015Z,101547.84
2019-02-20T00:27:36.438Z,101543.77
2019-02-20T00:30:12.124Z,101541.36
2019-02-20T00:32:43.683Z,101530.73
2019-02-20T00:35:14.576Z,101530.79
2019-02-20T00:37:47.148Z,101525.84
2019-02-20T00:40:17.884Z,101523.94
2019-02-20T00:42:49.853Z,101535.52
2019-02-20T00:45:33.843Z,101531.55
2019-02-20T00:48:10.143Z,101536.60
2019-02-20T00:50:42.619Z,101531.23
2019-02-20T00:53:16.937Z,101530.75
2019-02-20T00:55:49.821Z,101520.70
2019-02-20T00:58:21.068Z,101518.25
2019-02-20T01:00:52.537Z,101518.64
2019-02-20T01:03:25.502Z,101501.59
2019-02-20T01:05:58.190Z,101500.28
2019-02-20T01:08:29.730Z,101499.09
2019-02-20T01:11:01.664Z,101493.39
2019-02-20T01:13:33.423Z,101485.31
2019-02-20T01:16:05.307Z,101483.03
2019-02-20T01:18:36.757Z,101475.64
2019-02-20T01:21:07.183Z,101475.09
2019-02-20T01:23:39.336Z,101464.73
2019-02-20T01:26:11.147Z,101460.84
2019-02-20T01:28:42.961Z,101453.67
2019-02-20T01:31:14.707Z,101452.91
2019-02-20T01:33:47.394Z,101449.33
2019-02-20T01:36:17.623Z,101449.60
2019-02-20T01:38:48.454Z,101439.06
2019-02-20T01:41:20.623Z,101425.23
2019-02-20T01:43:52.491Z,101417.95
2019-02-20T01:46:25.052Z,101424.36
2019-02-20T01:48:57.457Z,101425.23
2019-02-20T01:51:29.391Z,101416.33
2019-02-20T01:54:02.370Z,101421.27
2019-02-20T01:56:34.248Z,101421.97
2019-02-20T01:59:04.656Z,101420.34
2019-02-20T02:01:36.415Z,101416.06
2019-02-20T02:04:08.172Z,101412.70
2019-02-20T02:06:38.462Z,101410.19
2019-02-20T02:09:10.352Z,101407.48
2019-02-20T02:11:42.601Z,101411.27
2019-02-20T02:14:13.213Z,101417.52
2019-02-20T02:16:43.801Z,101419.41
2019-02-20T02:19:17.279Z,101415.51
2019-02-20T02:21:47.841Z,101415.78
2019-02-20T02:24:19.457Z,101420.06
2019-02-20T02:26:50.396Z,101415.52
2019-02-20T02:29:23.011Z,101419.20
2019-02-20T02:31:54.723Z,101413.88
2019-02-20T02:34:26.862Z,101408.45
2019-02-20T02:36:58.646Z,101414.05
2019-02-20T02:39:29.283Z,101401.36
2019-02-20T02:42:00.774Z,101397.08
2019-02-20T02:44:34.038Z,101404.45
2019-02-20T02:47:05.685Z,101404.08
2019-02-20T02:49:38.864Z,101387.38
2019-02-20T02:52:12.090Z,101386.93
2019-02-20T02:54:42.431Z,101391.98
2019-02-20T02:57:16.590Z,101394.62
2019-02-20T02:59:48.865Z,101393.44
2019-02-20T03:02:20.208Z,101377.38
2019-02-20T03:04:50.849Z,101383.84
2019-02-20T03:07:21.576Z,101386.45
2019-02-20T03:09:53.915Z,101378.80
2019-02-20T03:12:25.807Z,101374.84
2019-02-20T03:14:56.812Z,101372.61
2019-02-20T03:17:28.174Z,101369.30
2019-02-20T03:19:59.228Z,101366.80
2019-02-20T03:22:32.008Z,101360.89
2019-02-20T03:25:03.661Z,101363.33
2019-02-20T03:27:36.257Z,101359.75
2019-02-20T03:30:08.722Z,101363.70
2019-02-20T03:32:41.489Z,101356.63
2019-02-20T03:35:13.140Z,101361.39
2019-02-20T03:37:45.399Z,101360.41
2019-02-20T03:40:17.964Z,101339.59
2019-02-20T03:42:51.489Z,101334.93
2019-02-20T03:45:22.325Z,101330.86
2019-02-20T03:47:53.470Z,101336.66
2019-02-20T03:50:24.401Z,101327.66
2019-02-20T03:52:55.034Z,101319.62
2019-02-20T03:55:27.405Z,101318.16
2019-02-20T03:57:58.574Z,101321.91
2019-02-20T04:00:30.861Z,101312.84
2019-02-20T04:03:03.079Z,101310.73
2019-02-20T04:05:35.479Z,101313.22
2019-02-20T04:08:08.218Z,101312.90
2019-02-20T04:10:38.558Z,101315.34
2019-02-20T04:13:11.024Z,101314.15
2019-02-20T04:15:44.224Z,101307.78
2019-02-20T04:18:15.667Z,101299.59
2019-02-20T04:20:47.559Z,101296.50
2019-02-20T04:23:18.364Z,101292.32
2019-02-20T04:25:50.767Z,101288.63
2019-02-20T04:28:23.414Z,101284.30
2019-02-20T04:30:56.087Z,101287.39
2019-02-20T04:33:26.925Z,101290.09
2019-02-20T04:36:01.343Z,101289.70
2019-02-20T04:38:32.485Z,101282.31
2019-02-20T04:41:04.650Z,101273.42
2019-02-20T04:43:34.979Z,101290.99
2019-02-20T04:46:05.505Z,101271.78
2019-02-20T04:48:37.873Z,101284.83
2019-02-20T04:51:09.144Z,101283.36
2019-02-20T04:53:41.612Z,101283.33
2019-02-20T04:56:13.584Z,101294.19
2019-02-20T04:58:46.482Z,101294.83
2019-02-20T05:01:16.861Z,101298.05
2019-02-20T05:03:47.461Z,101280.44
2019-02-20T05:06:19.347Z,101287.67
2019-02-20T05:08:51.926Z,101285.34
2019-02-20T05:11:22.442Z,101277.98
2019-02-20T05:13:54.450Z,101264.34
2019-02-20T05:16:25.653Z,101267.95
2019-02-20T05:18:56.507Z,101258.55
2019-02-20T05:21:27.443Z,101255.23
2019-02-20T05:23:58.372Z,101251.48
2019-02-20T05:26:29.600Z,101253.88
2019-02-20T05:29:03.239Z,101260.25
2019-02-20T05:31:35.478Z,101253.54
2019-02-20T05:34:06.360Z,101244.78
2019-02-20T05:36:37.865Z,101247.57
2019-02-20T05:39:08.734Z,101242.03
2019-02-20T05:41:39.446Z,101233.06
2019-02-20T05:44:10.751Z,101244.22
2019-02-20T05:46:41.207Z,101241.06
2019-02-20T05:49:12.178Z,101241.23
2019-02-20T05:51:43.505Z,101242.40
2019-02-20T05:54:14.328Z,101234.25
2019-02-20T05:56:49.668Z,101234.54
2019-02-20T05:59:21.223Z,101233.71
2019-02-20T06:01:52.844Z,101227.66
2019-02-20T06:04:24.322Z,101231.77
2019-02-20T06:06:55.472Z,101227.59
2019-02-20T06:09:26.712Z,101217.19
2019-02-20T06:12:02.207Z,101220.05
2019-02-20T06:14:33.233Z,101211.53
2019-02-20T06:17:07.305Z,101215.38
2019-02-20T06:19:38.150Z,101206.80
2019-02-20T06:22:10.301Z,101202.84
2019-02-20T06:24:44.066Z,101203.09
2019-02-20T06:27:15.007Z,101206.92
2019-02-20T06:29:45.876Z,101213.73
2019-02-20T06:32:17.529Z,101199.59
2019-02-20T06:34:47.759Z,101190.91
2019-02-20T06:37:20.240Z,101188.16
2019-02-20T06:39:53.647Z,101201.33
2019-02-20T06:42:25.766Z,101193.64
2019-02-20T06:44:56.620Z,101188.02
2019-02-20T06:47:29.062Z,101183.33
2019-02-20T06:50:01.197Z,101217.25
2019-02-20T06:52:32.527Z,101178.31
2019-02-20T06:55:03.355Z,101169.57
2019-02-20T06:57:34.068Z,101182.66
2019-02-20T07:00:06.739Z,101168.99
2019-02-20T07:02:38.301Z,101168.21
2019-02-20T07:05:30.600Z,101164.95
2019-02-20T07:08:16.320Z,101165.67
2019-02-20T07:11:21.922Z,101156.09
2019-02-20T07:13:58.445Z,101153.31
2019-02-20T07:17:03.068Z,101147.44
2019-02-20T07:19:50.854Z,101142.60
2019-02-20T07:22:42.731Z,101137.28
2019-02-20T07:25:26.366Z,101168.54
2019-02-20T07:28:00.416Z,101135.77
2019-02-20T07:30:34.166Z,101131.78
2019-02-20T07:33:07.167Z,101108.83
2019-02-20T07:35:39.463Z,101124.33
2019-02-20T07:38:09.972Z,101112.22
2019-02-20T07:40:41.616Z,101122.70
2019-02-20T07:43:21.162Z,101113.62
2019-02-20T07:45:54.403Z,101117.48
2019-02-20T07:48:26.002Z,101123.09
2019-02-20T07:50:57.554Z,101124.48
2019-02-20T07:53:29.617Z,101126.63
2019-02-20T07:56:02.193Z,101132.37
2019-02-20T07:58:33.394Z,101124.20
2019-02-20T08:01:05.596Z,101120.55
2019-02-20T08:03:38.652Z,101095.16
2019-02-20T08:06:09.531Z,101114.02
2019-02-20T08:08:40.277Z,101119.14
2019-02-20T08:11:12.836Z,101113.16
2019-02-20T08:13:43.768Z,101113.07
2019-02-20T08:16:15.903Z,101106.47
2019-02-20T08:18:46.768Z,101107.44
2019-02-20T08:21:18.570Z,101104.05
2019-02-20T08:23:49.056Z,101105.42
2019-02-20T08:26:20.398Z,101099.22
2019-02-20T08:28:53.835Z,101099.86
2019-02-20T08:31:24.123Z,101114.00
2019-02-20T08:33:54.750Z,101097.78
2019-02-20T08:36:25.581Z,101089.29
2019-02-20T08:38:56.424Z,101088.50
2019-02-20T08:41:28.276Z,101086.60
2019-02-20T08:44:00.854Z,101088.33
2019-02-20T08:46:32.094Z,101079.27
2019-02-20T08:49:03.653Z,101075.01
2019-02-20T08:51:35.818Z,101074.54
2019-02-20T08:54:06.657Z,101080.61
2019-02-20T08:56:37.386Z,101078.77
2019-02-20T08:59:08.726Z,101074.41
2019-02-20T09:01:39.971Z,101067.84
2019-02-20T09:04:13.542Z,101077.16
2019-02-20T09:06:46.225Z,101069.12
2019-02-20T09:09:16.998Z,101075.20
2019-02-20T09:11:48.140Z,101067.14
2019-02-20T09:14:24.303Z,101068.94
2019-02-20T09:16:54.914Z,101065.45
2019-02-20T09:19:26.017Z,101074.30
2019-02-20T09:21:57.096Z,101062.47
2019-02-20T09:24:29.677Z,101064.98
2019-02-20T09:27:03.359Z,101061.56
2019-02-20T09:29:38.225Z,101057.02
2019-02-20T09:32:11.315Z,101058.13
2019-02-20T09:34:43.385Z,101054.78
2019-02-20T09:37:13.674Z,101046.91
2019-02-20T09:39:45.140Z,101046.87
2019-02-20T09:42:19.136Z,101049.11
2019-02-20T09:44:50.075Z,101045.62
2019-02-20T09:47:22.115Z,101045.86
2019-02-20T09:49:55.226Z,101036.91
2019-02-20T09:52:27.720Z,101040.45
2019-02-20T09:54:57.974Z,101039.78
2019-02-20T09:57:36.333Z,101030.81
2019-02-20T10:00:11.767Z,101022.00
2019-02-20T10:02:42.107Z,101035.89
2019-02-20T10:05:14.171Z,101015.03
2019-02-20T10:07:46.023Z,101014.25
2019-02-20T10:10:18.820Z,101015.12
2019-02-20T10:12:50.869Z,100999.68
2019-02-20T10:15:24.373Z,101007.02
2019-02-20T10:17:56.118Z,101014.89
2019-02-20T10:20:28.597Z,101005.47
2019-02-20T10:22:59.632Z,101004.40
2019-02-20T10:25:29.953Z,100999.16
2019-02-20T10:28:04.478Z,100990.95
2019-02-20T10:30:35.603Z,100976.09
2019-02-20T10:33:10.656Z,100982.00
2019-02-20T10:35:41.799Z,100983.05
2019-02-20T10:38:12.979Z,100966.75
2019-02-20T10:40:43.673Z,100960.92
2019-02-20T10:43:16.147Z,100960.47
2019-02-20T10:45:47.492Z,100963.11
2019-02-20T10:48:20.309Z,100955.91
2019-02-20T10:50:52.543Z,100954.26
2019-02-20T10:53:25.382Z,100938.73
2019-02-20T10:55:57.282Z,100944.16
2019-02-20T10:58:30.988Z,100950.08
2019-02-20T11:01:01.616Z,100933.20
2019-02-20T11:03:34.785Z,100931.02
2019-02-20T11:06:05.951Z,100931.48
2019-02-20T11:08:37.020Z,100932.17
2019-02-20T11:11:09.250Z,100923.06
2019-02-20T11:13:40.061Z,100919.46
2019-02-20T11:16:10.721Z,100922.98
2019-02-20T11:18:43.466Z,100920.16
2019-02-20T11:21:16.300Z,100910.74
2019-02-20T11:23:47.115Z,100911.26
2019-02-20T11:26:21.880Z,100908.41
2019-02-20T11:28:55.043Z,100902.05
2019-02-20T11:31:26.075Z,100895.86
2019-02-20T11:33:56.708Z,100904.63
2019-02-20T11:36:27.330Z,100895.88
2019-02-20T11:38:58.373Z,100894.68
2019-02-20T11:41:31.881Z,100900.34
2019-02-20T11:44:03.736Z,100896.59
2019-02-20T11:46:34.779Z,100897.80
2019-02-20T11:49:07.504Z,100884.27
2019-02-20T11:51:40.435Z,100880.37
2019-02-20T11:54:12.978Z,100888.30
2019-02-20T11:56:43.750Z,100886.00
2019-02-20T11:59:15.599Z,100901.50
2019-02-20T12:01:46.656Z,100884.66
2019-02-20T12:04:18.546Z,100877.45
2019-02-20T12:06:49.442Z,100865.07
2019-02-20T12:09:21.809Z,100866.81
2019-02-20T12:11:54.037Z,100874.56
2019-02-20T12:14:25.029Z,100879.56
2019-02-20T12:16:59.726Z,100867.87
2019-02-20T12:19:30.105Z,100870.09
2019-02-20T12:22:01.615Z,100866.81
2019-02-20T12:24:34.302Z,100845.53
2019-02-20T12:27:04.606Z,100844.49
2019-02-20T12:29:37.232Z,100844.29
2019-02-20T12:32:09.465Z,100838.84
2019-02-20T12:34:42.143Z,100824.22
2019-02-20T12:37:16.047Z,100829.28
2019-02-20T12:39:48.248Z,100831.69
2019-02-20T12:42:28.161Z,100828.25
2019-02-20T12:52:32.628Z,100822.63
2019-02-20T12:58:17.444Z,100828.25
2019-02-20T13:00:49.840Z,100818.28
2019-02-20T13:03:23.017Z,100808.84
2019-02-20T13:05:54.322Z,100833.39
2019-02-20T13:08:27.337Z,100819.98
2019-02-20T13:10:58.377Z,100823.77
2019-02-20T13:13:30.553Z,100821.17
2019-02-20T13:16:09.349Z,100819.44
2019-02-20T13:18:37.225Z,100815.17
2019-02-20T13:21:11.451Z,100817.72
2019-02-20T13:23:48.275Z,100818.42
2019-02-20T13:26:20.019Z,100820.70
2019-02-20T13:29:01.494Z,100823.99
2019-02-20T13:31:36.237Z,100817.27
2019-02-20T13:34:08.130Z,100813.14
2019-02-20T13:36:39.553Z,100816.23
2019-02-20T13:39:10.639Z,100833.13
2019-02-20T13:41:44.439Z,100808.52
2019-02-20T13:44:17.081Z,100796.67
2019-02-20T13:46:50.366Z,100807.82
2019-02-20T13:49:22.544Z,100803.19
2019-02-20T13:51:56.103Z,100797.51
2019-02-20T13:54:28.694Z,100808.52
2019-02-20T13:57:02.351Z,100803.53
2019-02-20T13:59:34.543Z,100798.73
2019-02-20T14:02:06.163Z,100794.95
2019-02-20T14:04:40.423Z,100797.17
2019-02-20T14:07:10.849Z,100788.93
2019-02-20T14:09:42.988Z,100787.70
2019-02-20T14:12:14.540Z,100782.37
2019-02-20T14:14:45.368Z,100777.73
2019-02-20T14:17:16.514Z,100779.80
2019-02-20T14:19:49.247Z,100781.53
2019-02-20T14:22:20.809Z,100775.84
2019-02-20T14:24:56.846Z,100777.92
2019-02-20T14:27:28.809Z,100764.16
2019-02-20T14:30:01.564Z,100769.30
2019-02-20T14:32:34.380Z,100757.78
2019-02-20T14:35:08.820Z,100756.44
2019-02-20T14:37:48.193Z,100751.95
2019-02-20T14:40:21.650Z,100758.83
2019-02-20T14:42:55.323Z,100758.83
2019-02-20T14:45:27.393Z,100765.55
2019-02-20T14:48:00.388Z,100767.44
2019-02-20T14:50:33.008Z,100756.08
2019-02-20T14:53:05.337Z,100747.34
2019-02-20T14:55:37.658Z,100750.58
2019-02-20T14:58:10.672Z,100745.95
2019-02-20T15:00:45.699Z,100746.29
2019-02-20T15:03:22.544Z,100760.22
2019-02-20T15:05:53.476Z,100753.86
2019-02-20T15:08:24.071Z,100745.28
2019-02-20T15:10:54.718Z,100749.22
2019-02-20T15:13:26.180Z,100741.14
2019-02-20T15:15:57.811Z,100740.78
2019-02-20T15:18:30.752Z,100741.30
2019-02-20T15:21:02.790Z,100749.72
2019-02-20T15:23:33.209Z,100747.15
2019-02-20T15:26:04.243Z,100739.92
2019-02-20T15:28:35.908Z,100749.58
2019-02-20T15:31:07.150Z,100739.25
2019-02-20T15:33:38.189Z,100749.58
2019-02-20T15:36:09.433Z,100754.56
2019-02-20T15:38:42.322Z,100760.23
2019-02-20T15:41:13.252Z,100748.22
2019-02-20T15:43:43.984Z,100754.23
2019-02-20T15:46:16.870Z,100755.09
2019-02-20T15:48:50.257Z,100765.91
2019-02-20T15:51:21.652Z,100760.23
2019-02-20T15:53:52.961Z,100752.86
2019-02-20T15:56:24.096Z,100758.87
2019-02-20T15:58:56.540Z,100758.20
2019-02-20T16:01:26.928Z,100759.03
2019-02-20T16:03:58.447Z,100754.41
2019-02-20T16:06:30.232Z,100753.72
2019-02-20T16:09:02.776Z,100754.58
2019-02-20T16:11:34.536Z,100749.42
2019-02-20T16:14:05.675Z,100761.12
2019-02-20T16:16:36.587Z,100750.80
2019-02-20T16:19:07.554Z,100753.71
2019-02-20T16:21:39.404Z,100758.19
2019-02-20T16:24:09.612Z,100764.05
2019-02-20T16:26:42.205Z,100751.33
2019-02-20T16:29:13.670Z,100750.63
2019-02-20T16:31:45.015Z,100750.63
2019-02-20T16:34:18.077Z,100757.33
2019-02-20T16:36:50.883Z,100763.34
2019-02-20T16:39:22.022Z,100748.05
2019-02-20T16:41:52.994Z,100759.07
2019-02-20T16:44:23.787Z,100754.75
2019-02-20T16:46:54.958Z,100750.81
2019-02-20T16:49:28.061Z,100757.84
2019-02-20T16:51:59.156Z,100746.84
2019-02-20T16:54:31.595Z,100750.45
2019-02-20T16:57:02.876Z,100753.56
2019-02-20T16:59:33.608Z,100741.17
2019-02-20T17:02:04.342Z,100749.27
2019-02-20T17:04:39.559Z,100749.77
2019-02-20T17:07:10.724Z,100745.98
2019-02-20T17:09:43.326Z,100747.88
2019-02-20T17:12:14.442Z,100760.43
2019-02-20T17:14:46.096Z,100752.71
2019-02-20T17:17:17.235Z,100758.73
2019-02-20T17:19:47.665Z,100763.36
2019-02-20T17:22:18.292Z,100761.97
2019-02-20T17:24:49.541Z,100758.19
2019-02-20T17:27:20.342Z,100761.98
2019-02-20T17:29:51.343Z,100760.75
2019-02-20T17:32:23.987Z,100765.92
2019-02-20T17:34:55.335Z,100768.98
2019-02-20T17:37:29.652Z,100771.45
2019-02-20T17:40:00.690Z,100776.33
2019-02-20T17:42:32.450Z,100778.73
2019-02-20T17:45:04.613Z,100774.20
2019-02-20T17:47:35.548Z,100771.63
2019-02-20T17:50:09.670Z,100768.87
2019-02-20T17:52:43.466Z,100773.12
2019-02-20T17:55:14.101Z,100771.33
2019-02-20T17:57:45.139Z,100764.12
2019-02-20T18:00:20.623Z,100763.61
2019-02-20T18:02:52.026Z,100759.21
2019-02-20T18:05:23.896Z,100753.89
2019-02-20T18:07:55.550Z,100767.80
2019-02-20T18:10:26.684Z,100773.62
2019-02-20T18:12:57.523Z,100774.48
2019-02-20T18:15:28.762Z,100765.73
2019-02-20T18:18:01.140Z,100776.03
2019-02-20T18:20:33.715Z,100780.83
2019-02-20T18:23:05.981Z,100779.63
2019-02-20T18:25:36.510Z,100770.29
2019-02-20T18:28:08.786Z,100766.34
2019-02-20T18:30:40.130Z,100772.48
2019-02-20T18:33:10.757Z,100771.30
2019-02-20T18:35:41.765Z,100766.67
2019-02-20T18:38:14.163Z,100766.08
2019-02-20T18:40:44.808Z,100786.83
2019-02-20T18:43:16.521Z,100783.22
2019-02-20T18:45:48.204Z,100785.46
2019-02-20T18:48:19.555Z,100786.48
2019-02-20T18:50:50.496Z,100787.00
2019-02-20T18:53:21.325Z,100780.08
2019-02-20T18:55:56.237Z,100789.55
2019-02-20T18:58:33.751Z,100781.61
2019-02-20T19:01:01.172Z,100785.27
2019-02-20T19:03:33.270Z,100786.58
2019-02-20T19:06:05.237Z,100795.30
2019-02-20T19:08:41.321Z,100793.25
2019-02-20T19:11:26.875Z,100789.92
2019-02-20T19:14:13.370Z,100789.58
2019-02-20T19:16:53.559Z,100789.39
2019-02-20T19:19:35.517Z,100787.58
2019-02-20T19:22:09.570Z,100789.06
2019-02-20T19:24:47.380Z,100796.22
2019-02-20T19:27:23.570Z,100807.52
2019-02-20T19:30:27.228Z,100797.27
2019-02-20T19:33:24.570Z,100799.13
2019-02-20T19:36:10.024Z,100788.16
2019-02-20T19:38:58.910Z,100800.25
2019-02-20T19:41:52.016Z,100794.52
2019-02-20T19:44:31.923Z,100786.30
2019-02-20T19:47:15.135Z,100792.27
2019-02-20T19:50:18.171Z,100788.84
2019-02-20T19:52:53.949Z,100792.11
2019-02-20T19:55:37.403Z,100784.26
2019-02-20T19:58:42.811Z,100781.50
2019-02-20T20:01:51.903Z,100781.05
2019-02-20T20:04:52.408Z,100785.61
2019-02-20T20:07:54.077Z,100774.80
2019-02-20T20:10:43.551Z,100772.27
2019-02-20T20:13:34.528Z,100771.24
2019-02-20T20:16:27.002Z,100761.65
2019-02-20T20:19:13.512Z,100757.94
2019-02-20T20:22:01.311Z,100764.61
2019-02-20T20:24:45.971Z,100759.66
2019-02-20T20:27:38.305Z,100759.98
2019-02-20T20:30:27.886Z,100759.51
2019-02-20T20:33:16.670Z,100755.87
2019-02-20T20:35:55.514Z,100754.34
2019-02-20T20:39:05.725Z,100749.31
2019-02-20T20:41:44.127Z,100736.12
2019-02-20T20:44:30.833Z,100731.66
2019-02-20T20:47:25.180Z,100727.55
2019-02-20T20:50:18.993Z,100718.98
2019-02-20T20:53:08.260Z,100726.34
2019-02-20T20:56:00.907Z,100724.30
2019-02-20T20:58:40.959Z,100719.16
2019-02-20T21:01:20.802Z,100727.27
2019-02-20T21:03:56.457Z,100725.23
2019-02-20T21:06:42.752Z,100734.02
2019-02-20T21:09:25.482Z,100732.25
2019-02-20T21:12:28.651Z,100732.60
2019-02-20T21:15:24.473Z,100725.46
2019-02-20T21:18:16.734Z,100735.00
2019-02-20T21:21:03.523Z,100736.37
2019-02-20T21:23:52.278Z,100727.11
2019-02-20T21:26:45.640Z,100737.14
2019-02-20T21:29:28.695Z,100739.34
2019-02-20T21:32:05.534Z,100733.16
2019-02-20T21:34:59.305Z,100746.23
2019-02-20T21:37:45.810Z,100739.01
2019-02-20T21:40:29.444Z,100733.53
2019-02-20T21:43:24.653Z,100732.16
2019-02-20T21:46:31.223Z,100733.85
2019-02-20T21:49:16.799Z,100729.92
2019-02-20T21:52:10.370Z,100727.53
2019-02-20T21:54:47.757Z,100727.19
2019-02-20T21:57:24.429Z,100729.41
2019-02-20T22:00:13.789Z,100727.02
2019-02-20T22:02:50.678Z,100724.79
2019-02-20T22:05:35.133Z,100729.05
2019-02-20T22:08:24.613Z,100723.60
2019-02-20T22:11:12.956Z,100720.52
2019-02-20T22:14:04.569Z,100719.98
2019-02-20T22:17:02.963Z,100713.12
2019-02-20T22:19:45.976Z,100703.72
2019-02-20T22:22:31.964Z,100699.94
2019-02-20T22:25:40.668Z,100706.28
2019-02-20T22:28:23.396Z,100700.12
2019-02-20T22:31:21.064Z,100700.10
2019-02-20T22:34:21.091Z,100704.73
2019-02-20T22:37:10.141Z,100701.05
2019-02-20T22:39:45.492Z,100704.59
2019-02-20T22:42:41.715Z,100706.52
2019-02-20T22:45:33.615Z,100699.11
2019-02-20T22:48:17.283Z,100699.44
2019-02-20T22:51:13.611Z,100696.92
2019-02-20T22:54:05.871Z,100695.39
2019-02-20T22:56:59.108Z,100690.77
2019-02-20T23:00:06.732Z,100689.70
2019-02-20T23:02:43.889Z,100695.05
2019-02-20T23:05:40.533Z,100694.53
2019-02-20T23:08:20.376Z,100689.59
2019-02-20T23:11:11.685Z,100685.13
2019-02-20T23:13:51.637Z,100693.23
2019-02-20T23:16:24.626Z,100691.70
2019-02-20T23:18:56.589Z,100692.05
2019-02-20T23:21:27.318Z,100690.17
2019-02-20T23:23:58.152Z,100690.34
2019-02-20T23:26:31.314Z,100693.63
2019-02-20T23:29:01.767Z,100685.27
2019-02-20T23:31:35.981Z,100682.66
2019-02-20T23:34:06.701Z,100681.61
2019-02-20T23:36:37.482Z,100680.27
2019-02-20T23:39:09.103Z,100681.51
2019-02-20T23:41:40.106Z,100666.20
2019-02-20T23:44:10.775Z,100660.74
2019-02-20T23:46:42.122Z,100661.60
2019-02-20T23:49:12.681Z,100662.77
2019-02-20T23:51:45.248Z,100664.86
2019-02-20T23:54:17.424Z,100666.23
2019-02-20T23:56:50.471Z,100654.55
2019-02-20T23:59:21.729Z,100659.34
